Time;durP1;ratioP1;P1;durP2;ratioP2;P2;SDS_P1;SDS_P2;PMS_P1;PMS_P2;Temp;Humidity;BMP_temperature;BMP_pressure;BME280_temperature;BME280_humidity;BME280_pressure;Samples;Min_cycle;Max_cycle;Signal;HPM_P1;HPM_P2
2022/08/09 00:00:09;;;;;;;6.00;3.22;;;28.00;63.60;;;;;;5032490;28;20187;-79
2022/08/09 00:02:41;;;;;;;5.75;2.97;;;27.90;63.50;;;;;;5044331;28;20616;-76
2022/08/09 00:05:17;;;;;;;5.60;3.33;;;27.90;63.60;;;;;;5046776;28;20838;-75
2022/08/09 00:08:09;;;;;;;4.95;3.08;;;27.90;63.70;;;;;;5045429;28;20280;-75
2022/08/09 00:10:58;;;;;;;10.38;3.47;;;27.80;63.80;;;;;;5040508;28;20203;-75
2022/08/09 00:13:27;;;;;;;6.32;3.15;;;27.80;64.00;;;;;;5045771;28;20191;-76
2022/08/09 00:15:59;;;;;;;4.45;3.13;;;27.80;64.10;;;;;;5047104;28;20183;-76
2022/08/09 00:18:32;;;;;;;3.95;2.92;;;27.80;64.50;;;;;;5046971;28;20201;-76
2022/08/09 00:21:04;;;;;;;4.38;2.80;;;27.70;64.40;;;;;;5039411;28;20187;-76
2022/08/09 00:23:36;;;;;;;4.68;3.40;;;27.70;64.60;;;;;;5043295;28;20198;-77
2022/08/09 00:26:25;;;;;;;5.28;3.20;;;27.70;64.60;;;;;;5039173;28;20649;-76
2022/08/09 00:29:00;;;;;;;9.32;3.65;;;27.70;64.80;;;;;;5046200;28;20902;-75
2022/08/09 00:31:30;;;;;;;7.07;3.78;;;27.60;64.70;;;;;;5040617;28;20199;-76
2022/08/09 00:34:19;;;;;;;4.70;3.17;;;27.60;64.70;;;;;;5043211;28;20203;-75
2022/08/09 00:36:49;;;;;;;6.72;3.58;;;27.60;64.70;;;;;;5034212;28;20195;-75
2022/08/09 00:39:19;;;;;;;5.82;3.45;;;27.60;64.70;;;;;;5042848;28;20227;-76
2022/08/09 00:42:08;;;;;;;4.93;3.13;;;27.50;64.70;;;;;;5046512;28;20205;-78
2022/08/09 00:44:56;;;;;;;7.90;3.30;;;27.50;64.70;;;;;;5040173;28;20187;-77
2022/08/09 00:47:25;;;;;;;5.68;3.58;;;27.50;64.70;;;;;;5042957;28;20187;-76
2022/08/09 00:50:01;;;;;;;4.72;3.30;;;27.50;64.70;;;;;;5041564;28;20217;-76
2022/08/09 00:52:30;;;;;;;5.68;3.65;;;27.40;64.70;;;;;;5038491;28;20275;-77
2022/08/09 00:55:02;;;;;;;5.80;3.33;;;27.40;64.90;;;;;;5041748;28;20199;-77
2022/08/09 00:57:32;;;;;;;9.90;3.80;;;27.40;64.90;;;;;;5039193;28;20256;-77
2022/08/09 01:00:05;;;;;;;7.75;3.47;;;27.40;65.00;;;;;;5037049;28;20954;-76
2022/08/09 01:02:53;;;;;;;7.15;3.42;;;27.40;65.00;;;;;;5037203;28;20194;-76
2022/08/09 01:05:30;;;;;;;5.15;3.20;;;27.30;65.10;;;;;;5038221;28;20195;-77
2022/08/09 01:08:27;;;;;;;5.45;3.90;;;27.30;65.20;;;;;;5034237;28;20199;-77
2022/08/09 01:11:08;;;;;;;8.02;3.38;;;27.30;65.20;;;;;;5041380;28;20391;-76
2022/08/09 01:13:49;;;;;;;8.93;3.78;;;27.30;65.40;;;;;;5047451;28;20845;-77
2022/08/09 01:16:30;;;;;;;5.45;3.65;;;27.20;65.80;;;;;;5035666;28;20201;-79
2022/08/09 01:19:02;;;;;;;8.23;3.75;;;27.20;65.60;;;;;;5039859;28;20194;-77
2022/08/09 01:21:44;;;;;;;5.70;3.45;;;27.20;65.70;;;;;;5040894;28;20543;-76
2022/08/09 01:24:30;;;;;;;10.73;3.63;;;27.10;65.90;;;;;;5042306;28;20190;-77
2022/08/09 01:27:06;;;;;;;6.18;4.22;;;27.10;66.20;;;;;;5042816;28;20273;-77
2022/08/09 01:29:46;;;;;;;6.90;3.53;;;27.10;66.70;;;;;;5036714;28;20230;-78
2022/08/09 01:32:26;;;;;;;5.30;3.88;;;27.10;66.90;;;;;;5039172;28;20244;-76
2022/08/09 01:35:06;;;;;;;6.32;3.70;;;27.10;66.90;;;;;;5035037;28;20599;-76
2022/08/09 01:38:00;;;;;;;6.05;3.92;;;27.00;66.90;;;;;;5048930;28;20190;-76
2022/08/09 01:40:41;;;;;;;7.28;4.07;;;27.00;67.50;;;;;;5043358;28;20236;-76
2022/08/09 01:43:11;;;;;;;5.85;3.50;;;27.00;67.40;;;;;;5043166;28;20191;-77
2022/08/09 01:45:42;;;;;;;5.38;3.63;;;27.00;67.90;;;;;;5044756;28;20191;-76
2022/08/09 01:48:17;;;;;;;7.60;3.85;;;27.00;67.80;;;;;;5038187;28;20635;-77
2022/08/09 01:50:49;;;;;;;7.22;4.93;;;26.90;68.10;;;;;;5043407;28;20233;-77
2022/08/09 01:53:23;;;;;;;7.20;3.60;;;27.00;68.10;;;;;;5045624;28;20197;-77
2022/08/09 01:56:10;;;;;;;5.40;4.07;;;26.90;67.80;;;;;;5048060;28;20274;-76
2022/08/09 01:58:44;;;;;;;5.88;3.85;;;26.90;67.90;;;;;;5047410;28;20198;-76
2022/08/09 02:01:18;;;;;;;5.82;3.92;;;26.90;68.00;;;;;;5046193;28;20248;-76
2022/08/09 02:03:59;;;;;;;6.65;3.92;;;26.90;68.40;;;;;;5045866;28;20850;-76
2022/08/09 02:09:28;;;;;;;6.28;4.25;;;26.80;68.10;;;;;;5044926;28;20233;-77
2022/08/09 02:12:12;;;;;;;5.47;3.75;;;26.80;68.10;;;;;;5041860;28;20191;-77
2022/08/09 02:14:54;;;;;;;5.32;4.20;;;26.80;68.10;;;;;;5041260;28;21014;-76
2022/08/09 02:17:26;;;;;;;5.30;3.83;;;26.80;68.10;;;;;;5044090;28;20198;-77
2022/08/09 02:20:15;;;;;;;6.78;3.90;;;26.80;68.10;;;;;;5042723;28;20700;-78
2022/08/09 02:23:04;;;;;;;8.00;4.00;;;26.70;68.30;;;;;;5039002;28;20253;-77
2022/08/09 02:25:36;;;;;;;5.05;3.83;;;26.70;68.30;;;;;;5046597;28;20191;-77
2022/08/09 02:28:20;;;;;;;6.22;4.32;;;26.70;68.20;;;;;;5046862;28;20241;-77
2022/08/09 02:30:59;;;;;;;7.47;4.72;;;26.70;68.50;;;;;;5042353;28;20305;-85
2022/08/09 02:33:33;;;;;;;9.95;4.18;;;26.70;68.60;;;;;;5043937;28;20197;-77
2022/08/09 02:36:26;;;;;;;6.85;4.28;;;26.60;68.70;;;;;;5046856;28;20732;-76
2022/08/09 02:38:57;;;;;;;6.32;4.07;;;26.60;69.00;;;;;;5044177;28;20949;-76
2022/08/09 02:41:32;;;;;;;11.98;4.20;;;26.60;69.10;;;;;;5048058;28;20201;-76
2022/08/09 02:44:06;;;;;;;7.40;4.10;;;26.50;69.40;;;;;;5038464;28;20202;-76
2022/08/09 02:46:59;;;;;;;6.80;4.20;;;26.50;70.00;;;;;;5049031;28;20194;-77
2022/08/09 02:49:29;;;;;;;9.32;4.43;;;26.50;69.70;;;;;;5046672;28;20222;-76
2022/08/09 02:52:11;;;;;;;8.73;4.28;;;26.40;69.60;;;;;;5043755;28;20187;-76
2022/08/09 02:54:41;;;;;;;7.95;4.30;;;26.40;69.60;;;;;;5042678;28;20187;-76
2022/08/09 02:57:23;;;;;;;7.32;4.13;;;26.40;69.60;;;;;;5044140;28;20261;-77
2022/08/09 02:59:54;;;;;;;10.65;5.00;;;26.40;69.70;;;;;;5036711;28;20252;-76
2022/08/09 03:02:48;;;;;;;5.78;4.15;;;26.40;69.80;;;;;;5038128;28;20608;-76
2022/08/09 03:05:29;;;;;;;6.88;4.15;;;26.40;69.90;;;;;;5038541;28;20197;-76
2022/08/09 03:08:04;;;;;;;6.55;4.78;;;26.40;69.80;;;;;;5046694;28;20186;-77
2022/08/09 03:10:34;;;;;;;10.02;4.60;;;26.40;70.00;;;;;;5046248;28;20888;-76
2022/08/09 03:13:04;;;;;;;9.45;4.68;;;26.40;69.90;;;;;;5041428;28;20202;-77
2022/08/09 03:15:38;;;;;;;9.23;4.22;;;26.30;69.80;;;;;;5040362;28;20278;-77
2022/08/09 03:18:29;;;;;;;8.55;4.15;;;26.30;69.80;;;;;;5043971;28;20187;-76
2022/08/09 03:21:00;;;;;;;6.82;4.18;;;26.30;69.90;;;;;;5043072;28;21040;-77
2022/08/09 03:23:29;;;;;;;7.05;4.50;;;26.20;69.80;;;;;;5043061;28;20198;-76
2022/08/09 03:25:59;;;;;;;7.50;4.50;;;26.20;69.90;;;;;;5041179;28;20203;-76
2022/08/09 03:28:33;;;;;;;8.27;4.43;;;26.30;70.00;;;;;;5037648;28;20195;-77
2022/08/09 03:31:02;;;;;;;7.18;4.45;;;26.20;69.90;;;;;;5046513;28;20233;-76
2022/08/09 03:33:51;;;;;;;6.40;4.50;;;26.20;70.00;;;;;;5037086;28;20555;-77
2022/08/09 03:36:23;;;;;;;6.50;4.40;;;26.20;70.00;;;;;;5034478;28;20210;-78
2022/08/09 03:38:56;;;;;;;7.57;4.13;;;26.20;70.10;;;;;;5041295;28;20228;-76
2022/08/09 03:41:25;;;;;;;11.63;4.60;;;26.10;70.00;;;;;;5020393;28;20200;-77
2022/08/09 03:44:12;;;;;;;8.85;4.55;;;26.10;70.20;;;;;;5021121;28;20246;-77
2022/08/09 03:46:43;;;;;;;6.95;4.40;;;26.10;70.20;;;;;;5015155;28;20704;-76
2022/08/09 03:49:16;;;;;;;6.93;4.22;;;26.10;70.40;;;;;;5032382;28;20195;-77
2022/08/09 03:51:52;;;;;;;8.13;4.50;;;26.10;70.40;;;;;;5018987;28;20707;-76
2022/08/09 03:54:30;;;;;;;7.22;4.72;;;26.10;70.40;;;;;;5029793;28;20191;-76
2022/08/09 03:57:02;;;;;;;10.82;4.80;;;26.10;71.40;;;;;;5022813;28;20188;-77
2022/08/09 03:59:40;;;;;;;9.68;4.82;;;26.10;70.60;;;;;;5021717;28;20598;-77
2022/08/09 04:02:24;;;;;;;13.02;4.60;;;26.10;70.80;;;;;;5025116;28;20195;-76
2022/08/09 04:04:57;;;;;;;8.98;4.72;;;26.00;71.10;;;;;;5019915;28;20202;-76
2022/08/09 04:07:28;;;;;;;7.00;4.80;;;26.10;71.30;;;;;;5015442;28;20207;-77
2022/08/09 04:10:16;;;;;;;11.43;4.72;;;26.10;71.30;;;;;;5017172;28;20222;-77
2022/08/09 04:12:50;;;;;;;7.88;5.15;;;26.10;71.30;;;;;;5017178;28;20209;-76
2022/08/09 04:15:22;;;;;;;10.85;5.25;;;26.10;71.50;;;;;;5022288;28;20610;-77
2022/08/09 04:18:10;;;;;;;9.68;4.53;;;26.10;71.40;;;;;;5018942;28;20270;-77
2022/08/09 04:20:46;;;;;;;11.75;4.93;;;26.10;71.70;;;;;;5023519;28;20283;-75
2022/08/09 04:23:15;;;;;;;9.02;4.28;;;26.10;71.90;;;;;;5023014;28;20803;-77
2022/08/09 04:25:45;;;;;;;8.48;4.05;;;26.10;71.80;;;;;;5028747;28;20188;-77
2022/08/09 04:28:21;;;;;;;6.88;4.45;;;26.10;72.10;;;;;;5023260;28;20191;-76
2022/08/09 04:31:01;;;;;;;7.88;4.50;;;26.20;72.00;;;;;;5019619;28;20291;-76
2022/08/09 04:33:36;;;;;;;8.13;5.00;;;26.20;72.00;;;;;;5027688;28;20203;-76
2022/08/09 04:36:27;;;;;;;14.25;5.05;;;26.20;72.10;;;;;;5017320;28;20192;-77
2022/08/09 04:38:57;;;;;;;7.82;4.25;;;26.20;71.90;;;;;;5021764;28;20234;-76
2022/08/09 04:41:27;;;;;;;7.82;4.47;;;26.20;71.80;;;;;;5018351;28;20198;-76
2022/08/09 04:44:01;;;;;;;8.63;4.65;;;26.20;71.80;;;;;;5022857;28;20200;-78
2022/08/09 04:46:37;;;;;;;7.82;4.40;;;26.30;71.80;;;;;;5019267;28;20202;-75
2022/08/09 04:49:31;;;;;;;7.97;4.80;;;26.30;71.60;;;;;;5023078;28;20208;-76
2022/08/09 04:52:21;;;;;;;7.78;4.50;;;26.30;71.80;;;;;;5020669;28;20277;-76
2022/08/09 04:54:55;;;;;;;11.85;5.38;;;26.40;71.90;;;;;;5018269;28;20191;-76
2022/08/09 04:57:24;;;;;;;11.13;4.93;;;26.40;71.90;;;;;;5011316;28;20222;-76
2022/08/09 04:59:57;;;;;;;9.07;5.00;;;26.40;71.80;;;;;;5022995;28;20271;-79
2022/08/09 05:02:26;;;;;;;8.32;4.78;;;26.40;71.90;;;;;;5018988;28;20223;-76
2022/08/09 05:04:55;;;;;;;8.50;4.60;;;26.40;71.90;;;;;;5016298;28;20188;-76
2022/08/09 05:07:26;;;;;;;11.45;5.07;;;26.50;72.10;;;;;;5020361;28;20199;-76
2022/08/09 05:09:59;;;;;;;7.18;4.40;;;26.50;72.00;;;;;;5022945;28;20292;-79
2022/08/09 05:12:29;;;;;;;9.65;4.60;;;26.50;72.00;;;;;;5021854;28;20938;-79
2022/08/09 05:15:00;;;;;;;9.30;5.20;;;26.60;72.10;;;;;;5021364;28;20202;-79
2022/08/09 05:17:40;;;;;;;14.07;4.93;;;26.60;72.00;;;;;;5021635;28;20199;-79
2022/08/09 05:20:29;;;;;;;12.40;5.10;;;26.70;72.10;;;;;;5025052;28;20246;-79
2022/08/09 05:23:02;;;;;;;10.18;4.22;;;26.70;71.90;;;;;;5019788;28;20234;-79
2022/08/09 05:25:51;;;;;;;13.05;4.22;;;26.70;71.70;;;;;;5027237;28;20227;-78
2022/08/09 05:28:20;;;;;;;8.23;4.53;;;26.80;71.80;;;;;;5023998;28;21118;-78
2022/08/09 05:30:51;;;;;;;7.50;4.65;;;26.90;71.70;;;;;;5019601;28;20218;-78
2022/08/09 05:33:19;;;;;;;9.45;4.40;;;26.90;71.60;;;;;;5025079;28;20818;-77
2022/08/09 05:36:00;;;;;;;9.98;4.47;;;26.90;71.50;;;;;;5021132;28;20183;-78
2022/08/09 05:38:30;;;;;;;10.77;4.47;;;27.00;71.50;;;;;;5025771;28;20207;-76
2022/08/09 05:40:59;;;;;;;11.35;5.03;;;27.00;71.40;;;;;;5018501;28;20199;-75
2022/08/09 05:43:28;;;;;;;10.50;4.25;;;27.10;71.40;;;;;;5021424;28;20828;-77
2022/08/09 05:45:59;;;;;;;8.18;4.78;;;27.20;71.40;;;;;;5023253;28;20184;-76
2022/08/09 05:48:28;;;;;;;12.10;4.47;;;27.10;71.10;;;;;;5022770;28;20192;-76
2022/08/09 05:51:01;;;;;;;10.00;4.55;;;27.20;71.00;;;;;;5020767;28;20216;-76
2022/08/09 05:53:51;;;;;;;7.15;4.00;;;27.30;71.10;;;;;;5023207;28;20245;-77
2022/08/09 05:56:26;;;;;;;9.25;4.35;;;27.30;70.80;;;;;;5025126;28;20832;-77
2022/08/09 05:58:57;;;;;;;7.40;4.28;;;27.50;70.80;;;;;;5016493;28;20205;-78
2022/08/09 06:01:27;;;;;;;6.03;3.78;;;27.50;70.20;;;;;;5019936;28;20628;-77
2022/08/09 06:04:02;;;;;;;6.95;4.00;;;27.50;70.10;;;;;;5019567;28;20725;-77
2022/08/09 06:06:34;;;;;;;5.05;3.70;;;27.70;70.20;;;;;;5018506;28;21131;-77
2022/08/09 06:09:04;;;;;;;4.78;3.63;;;27.70;70.10;;;;;;5020506;28;20199;-78
2022/08/09 06:11:52;;;;;;;9.07;3.83;;;27.80;70.00;;;;;;5026892;28;20224;-77
2022/08/09 06:14:25;;;;;;;7.13;4.30;;;27.90;69.40;;;;;;5027720;28;20196;-77
2022/08/09 06:16:55;;;;;;;7.13;5.10;;;27.90;69.10;;;;;;5021604;28;20274;-79
2022/08/09 06:19:24;;;;;;;10.52;4.00;;;28.00;68.90;;;;;;5027831;28;20562;-78
2022/08/09 06:21:55;;;;;;;8.10;3.88;;;28.10;68.50;;;;;;5024279;28;20207;-76
2022/08/09 06:24:27;;;;;;;9.63;4.28;;;28.10;68.30;;;;;;5021941;28;20200;-76
2022/08/09 06:26:56;;;;;;;8.77;3.75;;;28.20;68.20;;;;;;5025258;28;20214;-75
2022/08/09 06:29:25;;;;;;;6.32;3.42;;;28.30;68.20;;;;;;5018564;28;20184;-77
2022/08/09 06:31:55;;;;;;;7.75;3.72;;;28.30;68.00;;;;;;5025273;28;20247;-79
2022/08/09 06:34:43;;;;;;;5.43;3.53;;;28.40;67.90;;;;;;5027265;28;20728;-77
2022/08/09 06:37:13;;;;;;;9.43;3.92;;;28.50;67.50;;;;;;5027594;28;20273;-77
2022/08/09 06:39:43;;;;;;;7.13;3.40;;;28.60;67.30;;;;;;5025560;28;20230;-78
2022/08/09 06:43:27;;;;;;;5.32;3.65;;;28.70;67.30;;;;;;5021072;28;20250;-77
2022/08/09 06:46:15;;;;;;;7.30;3.38;;;28.70;67.10;;;;;;5020686;28;20188;-76
2022/08/09 06:49:03;;;;;;;9.88;3.33;;;28.80;66.50;;;;;;5026553;28;20202;-74
2022/08/09 06:51:34;;;;;;;7.90;3.45;;;28.90;66.40;;;;;;5024402;28;20224;-74
2022/08/09 06:54:07;;;;;;;6.93;3.22;;;29.00;65.90;;;;;;5021579;28;20210;-74
2022/08/09 06:56:41;;;;;;;5.45;3.05;;;29.10;65.90;;;;;;5030878;28;20710;-74
2022/08/09 06:59:13;;;;;;;8.15;3.70;;;29.20;65.50;;;;;;5027433;28;20195;-73
2022/08/09 07:02:02;;;;;;;4.75;3.50;;;29.30;65.20;;;;;;5030008;28;20203;-74
2022/08/09 07:04:32;;;;;;;8.75;3.28;;;29.40;65.00;;;;;;5027689;28;20199;-75
2022/08/09 07:07:00;;;;;;;8.43;3.75;;;29.40;64.50;;;;;;5031064;28;20251;-74
2022/08/09 07:09:32;;;;;;;4.35;3.00;;;29.40;64.40;;;;;;5025996;28;20989;-75
2022/08/09 07:12:22;;;;;;;11.90;3.72;;;29.50;64.30;;;;;;5030617;28;20470;-75
2022/08/09 07:15:09;;;;;;;4.95;3.03;;;29.60;63.30;;;;;;5027017;28;20219;-75
2022/08/09 07:17:57;;;;;;;7.03;3.42;;;29.70;62.80;;;;;;5021733;28;20203;-73
2022/08/09 07:20:30;;;;;;;5.25;3.25;;;29.80;63.10;;;;;;5027744;28;20286;-74
2022/08/09 07:22:58;;;;;;;5.80;2.88;;;29.80;63.00;;;;;;5023964;28;20442;-73
2022/08/09 07:25:27;;;;;;;8.27;3.78;;;29.90;62.60;;;;;;5024237;28;20192;-75
2022/08/09 07:27:58;;;;;;;9.15;4.18;;;30.00;62.20;;;;;;5023352;28;20510;-74
2022/08/09 07:30:31;;;;;;;9.18;3.78;;;30.00;62.30;;;;;;5027210;28;20202;-76
2022/08/09 07:33:02;;;;;;;5.45;3.33;;;30.10;62.30;;;;;;5027602;28;20740;-74
2022/08/09 07:35:43;;;;;;;5.60;3.30;;;30.10;61.60;;;;;;5028478;28;20189;-75
2022/08/09 07:38:21;;;;;;;4.38;3.15;;;30.20;61.90;;;;;;5022158;28;20190;-74
2022/08/09 07:40:51;;;;;;;6.57;3.15;;;30.10;61.50;;;;;;5027490;28;20232;-74
2022/08/09 07:43:40;;;;;;;6.80;3.47;;;30.20;61.30;;;;;;5027140;28;20200;-75
2022/08/09 07:46:23;;;;;;;5.68;3.47;;;30.30;61.50;;;;;;5023489;28;20184;-74
2022/08/09 07:48:55;;;;;;;7.60;3.13;;;30.30;61.60;;;;;;5025303;28;20680;-76
2022/08/09 07:51:27;;;;;;;4.63;3.10;;;30.40;61.80;;;;;;5027172;28;20638;-74
2022/08/09 07:54:17;;;;;;;6.43;3.20;;;30.50;62.00;;;;;;5027657;28;20829;-77
2022/08/09 07:56:58;;;;;;;6.97;3.00;;;30.50;61.70;;;;;;5016088;28;20184;-75
2022/08/09 07:59:29;;;;;;;5.72;3.20;;;30.60;61.80;;;;;;5026059;28;20330;-75
2022/08/09 08:02:17;;;;;;;7.15;3.53;;;30.60;61.30;;;;;;5032147;28;20199;-72
2022/08/09 08:04:48;;;;;;;6.75;3.15;;;30.70;61.40;;;;;;5025161;28;20212;-75
2022/08/09 08:07:21;;;;;;;5.65;3.63;;;30.80;61.40;;;;;;5025708;28;20227;-75
2022/08/09 08:10:10;;;;;;;5.75;2.97;;;30.80;60.90;;;;;;5013625;28;20203;-75
2022/08/09 08:12:41;;;;;;;5.07;3.10;;;30.80;60.80;;;;;;5025621;28;20236;-76
2022/08/09 08:15:16;;;;;;;7.00;3.58;;;30.90;59.80;;;;;;5027830;28;20598;-74
2022/08/09 08:17:51;;;;;;;6.75;3.00;;;30.90;60.20;;;;;;5022166;28;20219;-74
2022/08/09 08:20:27;;;;;;;10.93;3.80;;;31.00;59.80;;;;;;5025583;28;20191;-77
2022/08/09 08:23:03;;;;;;;8.80;3.50;;;31.00;59.80;;;;;;5025247;28;20274;-73
2022/08/09 08:25:44;;;;;;;9.27;3.30;;;31.10;59.70;;;;;;5022130;28;20285;-73
2022/08/09 08:28:22;;;;;;;8.20;3.25;;;31.10;59.30;;;;;;5021806;28;20673;-76
2022/08/09 08:31:02;;;;;;;3.88;2.92;;;31.20;59.30;;;;;;5015275;28;20197;-75
2022/08/09 08:33:41;;;;;;;5.95;3.30;;;31.20;59.00;;;;;;5025156;28;20216;-74
2022/08/09 08:36:23;;;;;;;8.65;3.00;;;31.20;58.40;;;;;;5018117;28;20730;-75
2022/08/09 08:38:58;;;;;;;8.95;3.40;;;31.30;58.60;;;;;;5021785;28;20353;-74
2022/08/09 08:41:28;;;;;;;6.60;3.15;;;31.40;58.60;;;;;;5023977;28;20230;-76
2022/08/09 08:44:18;;;;;;;8.02;3.53;;;31.40;58.10;;;;;;5028144;28;20203;-74
2022/08/09 08:46:56;;;;;;;6.30;3.20;;;31.50;58.30;;;;;;5017747;28;20195;-75
2022/08/09 08:49:41;;;;;;;6.97;3.50;;;31.50;57.90;;;;;;5020753;28;20223;-76
2022/08/09 08:52:17;;;;;;;6.03;2.95;;;31.60;57.60;;;;;;5024624;28;20599;-74
2022/08/09 08:55:06;;;;;;;6.18;3.20;;;31.70;57.40;;;;;;5021047;28;20195;-74
2022/08/09 08:57:35;;;;;;;7.07;3.35;;;31.70;57.40;;;;;;5023695;28;20219;-74
2022/08/09 09:00:07;;;;;;;7.25;2.78;;;31.70;57.10;;;;;;5022079;28;20214;-72
2022/08/09 09:02:51;;;;;;;6.45;3.45;;;31.70;57.20;;;;;;5026621;28;20664;-75
2022/08/09 09:05:24;;;;;;;8.07;2.88;;;31.80;57.10;;;;;;5018601;28;20183;-73
2022/08/09 09:08:14;;;;;;;5.60;3.35;;;31.90;56.90;;;;;;5013861;28;20204;-74
2022/08/09 09:11:02;;;;;;;15.90;4.00;;;32.00;56.70;;;;;;5020680;28;20195;-73
2022/08/09 09:13:36;;;;;;;6.50;3.30;;;32.00;56.40;;;;;;5019577;28;20214;-74
2022/08/09 09:16:26;;;;;;;3.75;2.70;;;32.10;56.20;;;;;;5019728;28;20202;-74
2022/08/09 09:19:01;;;;;;;8.18;3.13;;;32.10;56.30;;;;;;5021427;28;20250;-73
2022/08/09 09:22:00;;;;;;;4.05;3.03;;;32.20;56.30;;;;;;5022162;28;20284;-74
2022/08/09 09:24:33;;;;;;;5.40;3.10;;;32.30;55.90;;;;;;5018596;28;20716;-76
2022/08/09 09:27:06;;;;;;;6.80;2.92;;;32.30;55.40;;;;;;5018285;28;20885;-75
2022/08/09 09:29:37;;;;;;;6.90;3.88;;;32.30;55.20;;;;;;5023374;28;20195;-73
2022/08/09 09:32:26;;;;;;;4.22;2.90;;;32.30;55.30;;;;;;5020030;28;20195;-73
2022/08/09 09:35:06;;;;;;;4.72;2.78;;;32.40;55.50;;;;;;5021072;28;20926;-73
2022/08/09 09:37:38;;;;;;;5.40;2.70;;;32.40;55.00;;;;;;5025194;28;20192;-73
2022/08/09 09:40:09;;;;;;;9.15;3.28;;;32.50;54.90;;;;;;5018907;28;20236;-74
2022/08/09 09:42:39;;;;;;;6.72;3.33;;;32.50;55.00;;;;;;5024682;28;20190;-76
2022/08/09 09:45:13;;;;;;;6.10;2.92;;;32.60;55.00;;;;;;5021338;28;20192;-77
2022/08/09 09:47:56;;;;;;;4.32;3.00;;;32.70;55.20;;;;;;5020565;28;20202;-73
2022/08/09 09:50:42;;;;;;;13.27;3.53;;;32.80;55.10;;;;;;5018673;28;20331;-74
2022/08/09 09:53:20;;;;;;;7.13;3.28;;;32.80;54.20;;;;;;5022911;28;20218;-74
2022/08/09 09:56:09;;;;;;;4.70;2.90;;;32.90;54.50;;;;;;5021394;28;20191;-76
2022/08/09 09:58:57;;;;;;;6.70;2.67;;;33.00;54.40;;;;;;5023920;28;20205;-76
2022/08/09 10:01:27;;;;;;;6.47;2.40;;;33.10;53.30;;;;;;5022647;28;20265;-74
2022/08/09 10:04:12;;;;;;;3.83;2.53;;;33.10;52.90;;;;;;5026376;28;20192;-76
2022/08/09 10:06:46;;;;;;;7.03;2.80;;;33.20;52.50;;;;;;5023090;28;20194;-75
2022/08/09 10:09:21;;;;;;;7.95;2.60;;;33.20;51.30;;;;;;5021409;28;20227;-75
2022/08/09 10:12:01;;;;;;;7.85;2.83;;;33.30;51.40;;;;;;5021623;28;20207;-74
2022/08/09 10:14:42;;;;;;;5.28;2.58;;;33.40;51.50;;;;;;5028083;28;21197;-74
2022/08/09 10:17:18;;;;;;;3.50;2.50;;;33.40;51.70;;;;;;5029733;28;20192;-74
2022/08/09 10:20:22;;;;;;;4.07;2.10;;;33.50;51.50;;;;;;5028363;28;20852;-75
2022/08/09 10:23:14;;;;;;;5.68;2.65;;;33.60;51.20;;;;;;5025888;28;20203;-76
2022/08/09 10:25:47;;;;;;;3.08;2.58;;;33.60;50.70;;;;;;5023531;28;20223;-76
2022/08/09 10:28:40;;;;;;;7.38;2.55;;;33.60;50.70;;;;;;5020629;28;20628;-75
2022/08/09 10:31:10;;;;;;;6.18;2.70;;;33.60;50.40;;;;;;5022141;28;20192;-74
2022/08/09 10:33:58;;;;;;;5.43;2.67;;;33.70;49.90;;;;;;5022361;28;20258;-74
2022/08/09 10:36:48;;;;;;;13.25;2.63;;;33.80;49.80;;;;;;5025387;28;20184;-75
2022/08/09 10:39:22;;;;;;;5.35;2.60;;;33.90;49.90;;;;;;5025753;28;20273;-76
2022/08/09 10:41:55;;;;;;;4.38;2.58;;;34.00;49.90;;;;;;5022923;28;20199;-76
2022/08/09 10:44:29;;;;;;;6.80;2.35;;;34.00;49.30;;;;;;5027058;28;20643;-75
2022/08/09 10:47:18;;;;;;;4.70;2.72;;;34.10;49.20;;;;;;5028097;28;20227;-75
2022/08/09 10:50:17;;;;;;;7.15;2.63;;;34.10;48.80;;;;;;5021411;28;20196;-75
2022/08/09 10:53:19;;;;;;;5.00;2.58;;;34.20;47.90;;;;;;5021774;28;20199;-75
2022/08/09 10:56:15;;;;;;;3.88;2.50;;;34.20;47.80;;;;;;5031601;28;20223;-74
2022/08/09 10:58:44;;;;;;;3.30;2.28;;;34.20;48.60;;;;;;5023563;28;20183;-76
2022/08/09 11:01:41;;;;;;;5.93;2.17;;;34.20;48.20;;;;;;5021097;28;20196;-75
2022/08/09 11:04:31;;;;;;;3.80;2.05;;;34.30;48.00;;;;;;5020062;28;20712;-74
2022/08/09 11:07:27;;;;;;;4.07;2.20;;;34.30;47.80;;;;;;5024356;28;20670;-76
2022/08/09 11:10:15;;;;;;;4.00;2.20;;;34.30;46.60;;;;;;5017730;28;20208;-76
2022/08/09 11:13:14;;;;;;;5.20;2.63;;;34.30;47.20;;;;;;5022297;28;20192;-74
2022/08/09 11:16:31;;;;;;;3.90;2.17;;;34.30;47.10;;;;;;5029056;28;20226;-75
2022/08/09 11:19:03;;;;;;;4.95;1.90;;;34.40;46.80;;;;;;5029471;28;20583;-74
2022/08/09 11:21:52;;;;;;;4.18;2.53;;;34.40;47.20;;;;;;5027024;28;20210;-73
2022/08/09 11:25:04;;;;;;;6.35;2.10;;;34.50;46.60;;;;;;5027683;28;20279;-76
2022/08/09 11:27:38;;;;;;;3.67;1.90;;;34.60;45.80;;;;;;5017266;28;20191;-76
2022/08/09 11:30:35;;;;;;;4.85;1.75;;;34.60;45.00;;;;;;5024689;28;20191;-74
2022/08/09 11:33:12;;;;;;;8.70;2.00;;;34.70;44.80;;;;;;5021153;28;20192;-76
2022/08/09 11:35:45;;;;;;;4.35;2.10;;;34.70;44.20;;;;;;5022154;28;20211;-79
2022/08/09 11:38:21;;;;;;;4.55;1.83;;;34.70;42.30;;;;;;5024478;28;20756;-76
2022/08/09 11:41:27;;;;;;;6.90;1.70;;;34.80;42.80;;;;;;5026212;28;20246;-78
2022/08/09 11:44:08;;;;;;;10.30;2.38;;;34.80;41.80;;;;;;5020168;28;20231;-80
2022/08/09 11:46:56;;;;;;;6.28;2.08;;;34.90;42.70;;;;;;5021398;28;20768;-77
2022/08/09 11:49:59;;;;;;;6.90;2.65;;;34.90;42.10;;;;;;5017831;28;20191;-78
2022/08/09 11:53:21;;;;;;;4.38;3.40;;;35.00;41.50;;;;;;4997110;28;20219;-78
2022/08/09 11:56:54;;;;;;;8.35;3.95;;;35.00;41.40;;;;;;5016562;28;20228;-77
2022/08/09 11:59:27;;;;;;;8.38;4.43;;;35.10;41.20;;;;;;5026079;28;20195;-76
2022/08/09 12:02:02;;;;;;;9.95;4.88;;;35.10;40.20;;;;;;5025910;28;20202;-75
2022/08/09 12:04:53;;;;;;;8.32;4.00;;;35.10;40.00;;;;;;5019704;28;20199;-76
2022/08/09 12:07:28;;;;;;;6.10;3.60;;;35.20;39.70;;;;;;5019299;28;20187;-78
2022/08/09 12:10:11;;;;;;;7.03;2.53;;;35.20;40.90;;;;;;5024844;28;20208;-77
2022/08/09 12:13:00;;;;;;;3.92;2.55;;;35.30;40.90;;;;;;5017912;28;20208;-77
2022/08/09 12:15:48;;;;;;;7.82;4.38;;;35.30;41.00;;;;;;5020640;28;20230;-77
2022/08/09 12:18:21;;;;;;;7.88;3.83;;;35.30;39.80;;;;;;5021413;28;20195;-78
2022/08/09 12:20:58;;;;;;;6.22;3.40;;;35.40;39.60;;;;;;5023500;28;20836;-76
2022/08/09 12:23:30;;;;;;;7.55;3.90;;;35.40;39.90;;;;;;5017707;28;20561;-77
2022/08/09 12:26:19;;;;;;;7.57;4.20;;;35.40;39.50;;;;;;5022547;28;20257;-77
2022/08/09 12:28:55;;;;;;;11.18;4.07;;;35.50;39.20;;;;;;5019003;28;20192;-78
2022/08/09 12:31:44;;;;;;;5.53;3.33;;;35.50;39.20;;;;;;5022490;28;20661;-77
2022/08/09 12:34:37;;;;;;;3.92;2.35;;;35.60;39.10;;;;;;5020062;28;20758;-77
2022/08/09 12:37:07;;;;;;;3.78;1.75;;;35.60;38.70;;;;;;5024194;28;20265;-77
2022/08/09 12:40:07;;;;;;;5.65;2.20;;;35.60;38.60;;;;;;5022121;28;20325;-78
2022/08/09 12:42:36;;;;;;;4.07;2.28;;;35.70;37.90;;;;;;5022425;28;20961;-77
2022/08/09 12:45:09;;;;;;;2.80;1.80;;;35.70;38.10;;;;;;5018969;28;20565;-77
2022/08/09 12:47:57;;;;;;;4.03;2.20;;;35.70;37.80;;;;;;5024287;28;20234;-78
2022/08/09 12:50:27;;;;;;;4.53;1.88;;;35.80;38.00;;;;;;5024352;28;20218;-78
2022/08/09 12:52:56;;;;;;;2.92;1.67;;;35.80;38.10;;;;;;5022209;28;20196;-78
2022/08/09 12:55:36;;;;;;;2.67;1.70;;;35.80;38.20;;;;;;5021444;28;21011;-77
2022/08/09 12:58:25;;;;;;;4.80;1.63;;;35.90;38.40;;;;;;5021092;28;20739;-78
2022/08/09 13:00:55;;;;;;;3.65;1.60;;;35.90;38.40;;;;;;5018252;28;20195;-77
2022/08/09 13:03:28;;;;;;;6.43;2.10;;;36.00;38.00;;;;;;5021570;28;20674;-77
2022/08/09 13:06:27;;;;;;;2.20;1.67;;;36.00;38.10;;;;;;5018708;28;20331;-79
2022/08/09 13:09:09;;;;;;;3.83;1.75;;;36.10;38.20;;;;;;5024505;28;20558;-77
2022/08/09 13:11:42;;;;;;;4.43;1.77;;;36.10;37.90;;;;;;5020627;28;20191;-76
2022/08/09 13:14:12;;;;;;;3.53;1.50;;;36.10;37.10;;;;;;5022602;28;20195;-78
2022/08/09 13:17:02;;;;;;;3.95;1.65;;;36.10;37.80;;;;;;5020617;28;20691;-77
2022/08/09 13:19:33;;;;;;;6.90;1.40;;;36.10;37.00;;;;;;5026304;28;20196;-76
2022/08/09 13:22:24;;;;;;;4.97;1.90;;;36.20;37.30;;;;;;5018797;28;20192;-77
2022/08/09 13:25:12;;;;;;;4.30;1.70;;;36.10;37.30;;;;;;5025400;28;20191;-77
2022/08/09 13:27:43;;;;;;;5.40;1.55;;;36.20;37.60;;;;;;5026558;28;20195;-77
2022/08/09 13:30:24;;;;;;;2.22;1.33;;;36.20;37.70;;;;;;5026525;28;21415;-77
2022/08/09 13:33:21;;;;;;;7.25;1.70;;;36.30;37.60;;;;;;5029586;28;20685;-77
2022/08/09 13:35:50;;;;;;;7.82;1.60;;;36.30;36.80;;;;;;5030463;28;20853;-76
2022/08/09 13:38:39;;;;;;;2.92;1.75;;;36.40;36.90;;;;;;5026753;28;20602;-76
2022/08/09 13:41:27;;;;;;;5.10;1.52;;;36.40;37.20;;;;;;5024204;28;20226;-78
2022/08/09 13:44:15;;;;;;;3.08;1.70;;;36.30;37.60;;;;;;5017783;28;20193;-77
2022/08/09 13:46:46;;;;;;;5.03;1.83;;;36.30;37.00;;;;;;5028252;28;20271;-76
2022/08/09 13:49:34;;;;;;;4.05;1.65;;;36.30;37.10;;;;;;5023214;28;20191;-78